KCAD/CAD METAR and TAF weather

Enter ICAO airport designator
Station Type Date Time Source
KCAD METAR 2019/10/23 13:17 UTC NOAA

KCAD 231317Z AUTO 24006KT 4SM +RA BKN008 BKN014 OVC019 05/03 A2973 RMK AO2 T00550040


Station Type Date Time Source
KCAD Decoded METAR 2019/10/23 13:17 UTC NOAA

Cadillac / Wexford County, MI, United States (KCAD) 44-17N 085-25W
Oct 23, 2019 - 09:17 AM EDT / 2019.10.23 1317 UTC
Wind: from the WSW (240 degrees) at 7 MPH (6 KT):0
Visibility: 4 mile(s):0
Sky conditions: overcast
Weather: heavy rain
Temperature: 41.9 F (5.5 C)
Dew Point: 39.2 F (4.0 C)
Relative Humidity: 90%
Pressure (altimeter): 29.73 in. Hg (1006 hPa)
ob: KCAD 231317Z AUTO 24006KT 4SM +RA BKN008 BKN014 OVC019 05/03 A2973 RMK AO2 T00550040
cycle: 13

Station Type Date Time Source
KCAD TAF UTC NOAA

Error!

Example: see airport list